Terminal Aerodrome Forecast
Issued by NWS Tampa Bay Area, FL

Home | Current Version | Previous Version | Text Only | Print | Product List | Glossary On
Versions: 1 2 3 4 5 6 7 8 9 10 11 12 13 14 15 16 17 18 19 20 21 22 23 24
000
FTUS42 KTBW 090537
TAFFMY
TAF
KFMY 090537Z 0906/1006 VRB03KT P6SM SCT250
     FM091800 07005KT P6SM VCTS FEW030CB
     FM092100 04007KT P6SM VCTS SCT030CB
     FM100000 VRB03KT P6SM BKN200=

USA.gov is the U.S. government's official web portal to all federal, state and local government web resources and services.